Time;durP1;ratioP1;P1;durP2;ratioP2;P2;SDS_P1;SDS_P2;PMS_P1;PMS_P2;Temp;Humidity;BMP_temperature;BMP_pressure;BME280_temperature;BME280_humidity;BME280_pressure;Samples;Min_cycle;Max_cycle;Signal;HPM_P1;HPM_P2
2022/12/09 00:01:28;;;;;;;2.10;1.90;;;-1.10;99.90;-2.40;94838.00;;;;5033219;28;20199;-58
2022/12/09 00:03:56;;;;;;;1.17;1.17;;;-1.10;99.90;-2.40;94822.00;;;;5033252;28;20204;-57
2022/12/09 00:06:27;;;;;;;1.00;1.00;;;-1.20;99.90;-2.40;94824.00;;;;5032944;28;20196;-57
2022/12/09 00:08:55;;;;;;;2.73;2.53;;;-1.20;99.90;-2.50;94834.00;;;;5033008;28;20216;-57
2022/12/09 00:11:24;;;;;;;2.03;1.93;;;-1.30;99.80;-2.60;94840.00;;;;5032923;28;20189;-57
2022/12/09 00:13:54;;;;;;;5.73;2.00;;;-1.30;99.70;-2.60;94846.00;;;;5032837;28;20200;-57
2022/12/09 00:16:22;;;;;;;1.90;1.80;;;-1.40;99.40;-2.80;94836.00;;;;5033012;28;20192;-57
2022/12/09 00:18:50;;;;;;;2.43;2.30;;;-1.50;99.10;-2.80;94831.00;;;;5032751;28;20274;-58
2022/12/09 00:21:21;;;;;;;2.30;1.93;;;-1.60;99.30;-2.80;94829.00;;;;5033959;28;20533;-58
2022/12/09 00:23:52;;;;;;;2.27;2.17;;;-1.60;99.40;-2.80;94824.00;;;;5033358;28;20200;-58
2022/12/09 00:26:22;;;;;;;1.70;1.60;;;-1.60;99.30;-2.80;94830.00;;;;5033285;28;20188;-58
2022/12/09 00:28:50;;;;;;;1.73;1.60;;;-1.70;99.20;-2.90;94813.00;;;;5032677;28;20213;-58
2022/12/09 00:31:22;;;;;;;1.50;1.40;;;-1.70;99.20;-2.90;94827.00;;;;5033134;28;20187;-56
2022/12/09 00:33:50;;;;;;;2.00;1.80;;;-1.70;99.20;-2.90;94813.00;;;;5033273;28;20207;-58
2022/12/09 00:36:20;;;;;;;1.93;1.83;;;-1.70;99.00;-2.90;94827.00;;;;5032693;28;20189;-58
2022/12/09 00:38:48;;;;;;;2.93;2.50;;;-1.70;98.90;-2.80;94825.00;;;;5032374;28;20233;-56
2022/12/09 00:41:17;;;;;;;6.43;4.17;;;-1.70;98.90;-2.70;94822.00;;;;5032666;28;20193;-58
2022/12/09 00:43:45;;;;;;;2.20;2.00;;;-1.60;98.90;-2.90;94810.00;;;;5032589;28;20222;-58
2022/12/09 00:46:13;;;;;;;5.90;2.30;;;-1.60;98.50;-2.90;94811.00;;;;5032566;28;20197;-58
2022/12/09 00:48:44;;;;;;;2.47;2.27;;;-1.70;98.10;-2.80;94799.00;;;;5032552;28;20667;-57
2022/12/09 00:51:15;;;;;;;1.07;1.07;;;-1.60;98.50;-2.70;94807.00;;;;5032941;28;20184;-58
2022/12/09 00:53:43;;;;;;;1.03;1.03;;;-1.60;98.70;-2.60;94809.00;;;;5032600;28;20177;-56
2022/12/09 00:56:12;;;;;;;2.53;2.33;;;-1.50;98.80;-2.60;94802.00;;;;5033296;28;20678;-56
2022/12/09 00:58:39;;;;;;;5.63;2.30;;;-1.40;98.70;-2.50;94809.00;;;;5036624;28;20211;-56
2022/12/09 01:01:06;;;;;;;2.77;2.00;;;-1.40;98.70;-2.50;94806.00;;;;5036627;28;20562;-56
2022/12/09 01:03:33;;;;;;;1.60;1.50;;;-1.30;98.80;-2.60;94809.00;;;;5034813;28;20224;-56
2022/12/09 01:06:00;;;;;;;1.87;1.63;;;-1.40;98.20;-2.70;94813.00;;;;5036480;28;20249;-56
2022/12/09 01:08:27;;;;;;;2.90;2.70;;;-1.50;98.30;-2.70;94802.00;;;;5036301;28;20277;-56
2022/12/09 01:10:54;;;;;;;2.27;1.97;;;-1.50;99.00;-2.60;94808.00;;;;5036282;28;20195;-56
2022/12/09 01:13:23;;;;;;;1.67;1.57;;;-1.40;99.20;-2.50;94796.00;;;;5035915;28;20192;-57
2022/12/09 01:15:50;;;;;;;3.30;2.93;;;-1.40;99.00;-2.60;94807.00;;;;5036077;28;20200;-58
2022/12/09 01:18:17;;;;;;;2.20;2.10;;;-1.40;98.60;-2.60;94796.00;;;;5036085;28;20196;-57
2022/12/09 01:20:44;;;;;;;2.37;2.17;;;-1.40;98.30;-2.60;94799.00;;;;5036038;28;20189;-57
2022/12/09 01:23:11;;;;;;;3.47;2.57;;;-1.40;98.20;-2.50;94795.00;;;;5036026;28;20240;-56
2022/12/09 01:25:38;;;;;;;1.93;1.83;;;-1.40;98.20;-2.60;94797.00;;;;5034703;28;20597;-56
2022/12/09 01:28:05;;;;;;;3.43;2.03;;;-1.40;97.40;-2.60;94804.00;;;;5036960;28;20195;-56
2022/12/09 01:30:34;;;;;;;3.70;2.07;;;-1.50;97.00;-2.70;94806.00;;;;5035818;28;20275;-57
2022/12/09 01:33:01;;;;;;;2.67;1.97;;;-1.50;97.40;-2.80;94812.00;;;;5035899;28;20193;-57
2022/12/09 01:35:28;;;;;;;1.87;1.77;;;-1.60;97.30;-2.80;94808.00;;;;5035777;28;20192;-57
2022/12/09 01:37:55;;;;;;;1.83;1.67;;;-1.60;98.00;-2.80;94815.00;;;;5036063;28;20651;-56
2022/12/09 01:40:22;;;;;;;3.03;2.83;;;-1.60;97.90;-2.90;94802.00;;;;5035302;28;20270;-56
2022/12/09 01:42:50;;;;;;;1.77;1.67;;;-1.70;98.10;-2.90;94814.00;;;;5034155;28;20682;-57
2022/12/09 01:45:42;;;;;;;1.63;1.53;;;-1.70;98.40;-2.80;94791.00;;;;5035868;28;20197;-56
2022/12/09 01:48:12;;;;;;;1.83;1.73;;;-1.70;98.90;-2.90;94794.00;;;;5035638;28;20607;-57
2022/12/09 01:50:46;;;;;;;2.60;2.40;;;-1.70;98.90;-2.90;94781.00;;;;5035354;28;20215;-56
2022/12/09 01:53:16;;;;;;;1.90;1.80;;;-1.80;99.20;-2.80;94791.00;;;;5035410;28;20207;-56
2022/12/09 01:55:44;;;;;;;1.00;1.00;;;-1.70;99.70;-2.80;94785.00;;;;5035137;28;20208;-56
2022/12/09 01:58:13;;;;;;;2.27;2.10;;;-1.70;99.60;-2.80;94764.00;;;;5035503;28;20195;-57
2022/12/09 02:00:42;;;;;;;2.43;2.20;;;-1.60;99.60;-2.90;94759.00;;;;5035239;28;20192;-56
2022/12/09 02:03:09;;;;;;;2.30;1.63;;;-1.70;98.90;-2.90;94758.00;;;;5035259;28;20223;-56
2022/12/09 02:05:37;;;;;;;2.10;2.00;;;-1.70;98.90;-2.90;94764.00;;;;5035274;28;20203;-56
2022/12/09 02:08:11;;;;;;;2.97;2.43;;;-1.60;98.90;-2.90;94756.00;;;;5034117;28;20199;-57
2022/12/09 02:10:49;;;;;;;2.07;1.97;;;-1.70;99.10;-2.90;94742.00;;;;5035260;28;20189;-56
2022/12/09 02:13:28;;;;;;;2.10;1.80;;;-1.70;98.60;-3.00;94750.00;;;;5035447;28;20626;-56
2022/12/09 02:16:01;;;;;;;2.40;2.13;;;-1.70;98.90;-3.00;94739.00;;;;5034945;28;20184;-56
2022/12/09 02:18:38;;;;;;;4.37;2.47;;;-1.80;98.70;-2.90;94748.00;;;;5017238;28;20224;-57
2022/12/09 02:21:10;;;;;;;1.63;1.53;;;-1.70;98.90;-2.90;94752.00;;;;5035068;28;20204;-56
2022/12/09 02:23:42;;;;;;;1.93;1.83;;;-1.70;98.50;-3.10;94761.00;;;;5035165;28;20651;-56
2022/12/09 02:26:22;;;;;;;1.60;1.50;;;-1.80;97.80;-3.20;94749.00;;;;5034837;28;20184;-57
2022/12/09 02:29:45;;;;;;;1.00;1.00;;;-1.90;97.90;-3.30;94755.00;;;;5034842;28;20212;-57
2022/12/09 02:32:39;;;;;;;1.67;1.57;;;-2.00;97.70;-3.10;94753.00;;;;5026749;28;20211;-56
2022/12/09 02:35:13;;;;;;;2.23;2.13;;;-2.00;98.50;-3.00;94758.00;;;;5034723;28;20172;-56
2022/12/09 02:37:50;;;;;;;2.30;2.10;;;-1.90;98.70;-3.00;94753.00;;;;5034953;28;20245;-56
2022/12/09 02:40:21;;;;;;;1.10;1.10;;;-1.80;98.60;-3.20;94749.00;;;;5034569;28;20232;-56
2022/12/09 02:42:49;;;;;;;2.00;1.90;;;-1.90;98.30;-3.20;94743.00;;;;5034561;28;20198;-56
2022/12/09 02:45:19;;;;;;;1.87;1.77;;;-2.00;99.10;-3.10;94741.00;;;;5034669;28;20221;-56
2022/12/09 02:47:51;;;;;;;3.50;2.10;;;-1.90;99.50;-3.00;94724.00;;;;5034360;28;20203;-56
2022/12/09 02:50:25;;;;;;;2.13;2.03;;;-1.80;99.30;-3.00;94726.00;;;;5034304;28;20683;-56
2022/12/09 02:52:56;;;;;;;1.53;1.43;;;-1.90;99.30;-3.10;94721.00;;;;5034580;28;20188;-56
2022/12/09 02:55:23;;;;;;;1.57;1.47;;;-1.90;99.00;-3.00;94715.00;;;;5034302;28;20181;-57
2022/12/09 02:57:57;;;;;;;1.80;1.70;;;-1.80;99.10;-3.20;94713.00;;;;5034281;28;20197;-56
2022/12/09 03:00:24;;;;;;;1.70;1.60;;;-1.90;98.20;-3.20;94716.00;;;;5034277;28;20275;-56
2022/12/09 03:02:56;;;;;;;1.70;1.60;;;-2.00;98.30;-3.20;94715.00;;;;5034126;28;20218;-56
2022/12/09 03:05:37;;;;;;;1.73;1.47;;;-2.00;98.10;-3.20;94721.00;;;;5034239;28;20191;-56
2022/12/09 03:08:16;;;;;;;3.20;1.83;;;-1.90;98.10;-3.10;94707.00;;;;5034042;28;20188;-57
2022/12/09 03:10:54;;;;;;;2.07;1.97;;;-1.90;98.50;-3.10;94708.00;;;;5033964;28;20189;-56
2022/12/09 03:13:40;;;;;;;1.33;1.23;;;-1.90;98.20;-3.10;94717.00;;;;5033930;28;20181;-56
2022/12/09 03:16:19;;;;;;;4.23;2.47;;;-1.90;98.10;-3.10;94704.00;;;;5034152;28;20241;-56
2022/12/09 03:18:54;;;;;;;2.27;1.70;;;-1.90;97.90;-3.10;94707.00;;;;5033967;28;20213;-56
2022/12/09 03:21:26;;;;;;;2.17;2.07;;;-1.90;97.70;-3.20;94689.00;;;;5034129;28;20538;-56
2022/12/09 03:23:58;;;;;;;2.27;2.17;;;-2.00;97.30;-3.20;94697.00;;;;5033789;28;20209;-56
2022/12/09 03:26:32;;;;;;;1.80;1.70;;;-2.10;97.30;-3.20;94692.00;;;;5016062;28;20561;-57
2022/12/09 03:29:02;;;;;;;1.90;1.80;;;-2.10;97.40;-3.20;94685.00;;;;5033467;28;20207;-56
2022/12/09 03:31:33;;;;;;;2.00;1.23;;;-2.00;97.30;-3.20;94671.00;;;;5033924;28;20189;-57
2022/12/09 03:34:05;;;;;;;2.07;1.83;;;-2.00;97.40;-3.20;94677.00;;;;5034180;28;20263;-56
2022/12/09 03:36:39;;;;;;;0.93;0.93;;;-2.00;97.50;-3.10;94673.00;;;;5033847;28;20178;-57
2022/12/09 03:39:12;;;;;;;1.63;1.53;;;-2.00;97.60;-3.00;94669.00;;;;5033550;28;20220;-56
2022/12/09 03:41:44;;;;;;;2.93;2.40;;;-1.90;97.80;-3.10;94679.00;;;;5015748;28;20184;-57
2022/12/09 03:44:19;;;;;;;2.20;1.83;;;-1.90;97.10;-3.10;94654.00;;;;5033466;28;20207;-56
2022/12/09 03:46:47;;;;;;;1.50;1.40;;;-1.90;96.70;-3.10;94689.00;;;;5033364;28;20642;-56
2022/12/09 03:49:14;;;;;;;2.37;2.27;;;-1.90;97.10;-3.10;94690.00;;;;5033339;28;20219;-56
2022/12/09 03:51:49;;;;;;;1.63;1.53;;;-1.90;96.70;-3.20;94689.00;;;;5033317;28;20249;-56
2022/12/09 03:54:23;;;;;;;2.03;1.90;;;-2.00;96.10;-3.10;94681.00;;;;5033310;28;20195;-56
2022/12/09 03:56:55;;;;;;;1.67;1.57;;;-2.00;95.90;-3.30;94680.00;;;;5033825;28;20180;-56
2022/12/09 03:59:25;;;;;;;2.40;2.20;;;-2.00;95.30;-3.30;94676.00;;;;5032449;28;20234;-56
2022/12/09 04:01:54;;;;;;;1.37;1.37;;;-2.10;95.70;-3.30;94672.00;;;;5032476;28;20195;-57
2022/12/09 04:04:21;;;;;;;2.43;2.30;;;-2.10;95.60;-3.30;94671.00;;;;5032982;28;20222;-57
2022/12/09 04:06:53;;;;;;;1.37;1.30;;;-2.10;95.70;-3.40;94673.00;;;;5033379;28;20188;-57
2022/12/09 04:09:20;;;;;;;1.60;1.50;;;-2.20;95.60;-3.30;94664.00;;;;5033053;28;20212;-57
2022/12/09 04:11:47;;;;;;;1.30;1.30;;;-2.10;96.40;-3.30;94666.00;;;;5033100;28;20188;-57
2022/12/09 04:14:14;;;;;;;2.60;2.40;;;-2.10;96.70;-3.20;94653.00;;;;5032875;28;20210;-57
2022/12/09 04:16:41;;;;;;;2.30;2.20;;;-2.10;96.90;-3.30;94653.00;;;;5033055;28;20195;-57
2022/12/09 04:19:08;;;;;;;2.33;2.13;;;-2.10;96.80;-3.10;94654.00;;;;5033182;28;20263;-57
2022/12/09 04:21:35;;;;;;;1.43;1.40;;;-2.00;97.50;-3.20;94644.00;;;;5033462;28;20200;-57
2022/12/09 04:24:04;;;;;;;1.60;1.53;;;-2.00;97.40;-3.30;94646.00;;;;5032991;28;20581;-56
2022/12/09 04:26:31;;;;;;;1.17;1.17;;;-2.10;97.50;-3.20;94645.00;;;;5032832;28;20191;-56
2022/12/09 04:28:58;;;;;;;1.00;1.00;;;-2.00;97.80;-3.10;94649.00;;;;5032684;28;20675;-56
2022/12/09 04:31:25;;;;;;;2.23;2.10;;;-2.00;97.60;-3.20;94637.00;;;;5032140;28;20724;-57
2022/12/09 04:33:52;;;;;;;2.33;2.20;;;-2.00;97.70;-3.10;94625.00;;;;5033033;28;20219;-56
2022/12/09 04:36:20;;;;;;;5.00;2.60;;;-1.90;97.80;-3.30;94622.00;;;;5032720;28;20199;-57
2022/12/09 04:38:48;;;;;;;1.87;1.77;;;-2.00;97.30;-3.30;94625.00;;;;5032674;28;20698;-56
2022/12/09 04:41:17;;;;;;;1.90;1.73;;;-2.10;97.50;-3.30;94623.00;;;;5032310;28;20659;-56
2022/12/09 04:43:45;;;;;;;2.13;1.83;;;-2.10;97.50;-3.40;94615.00;;;;5032494;28;20586;-56
2022/12/09 04:46:15;;;;;;;2.30;2.10;;;-2.10;97.40;-3.40;94612.00;;;;5032680;28;20657;-56
2022/12/09 04:48:43;;;;;;;2.27;1.97;;;-2.20;97.20;-3.40;94578.00;;;;5032711;28;20607;-56
2022/12/09 04:51:13;;;;;;;1.67;1.57;;;-2.20;97.30;-3.40;94607.00;;;;5032443;28;20655;-57
2022/12/09 04:53:40;;;;;;;2.03;1.93;;;-2.20;97.30;-3.40;94599.00;;;;5032816;28;20200;-56
2022/12/09 04:56:17;;;;;;;10.07;1.70;;;-2.20;97.30;-3.40;94609.00;;;;5032698;28;20662;-57
2022/12/09 04:58:46;;;;;;;1.93;1.83;;;-2.20;97.20;-3.50;94611.00;;;;5032680;28;20269;-56
2022/12/09 05:01:16;;;;;;;1.53;1.47;;;-2.30;96.90;-3.60;94604.00;;;;5032438;28;20203;-57
2022/12/09 05:03:49;;;;;;;1.17;1.17;;;-2.30;97.20;-3.60;94599.00;;;;5015152;28;20223;-57
2022/12/09 05:06:17;;;;;;;2.10;2.00;;;-2.40;97.20;-3.60;94594.00;;;;5032666;28;20234;-57
2022/12/09 05:08:45;;;;;;;1.30;1.30;;;-2.40;97.30;-3.70;94593.00;;;;5032352;28;20214;-57
2022/12/09 05:11:15;;;;;;;2.57;2.40;;;-2.40;97.10;-3.80;94599.00;;;;5032363;28;20251;-57
2022/12/09 05:13:42;;;;;;;6.83;1.77;;;-2.50;97.30;-3.80;94598.00;;;;5032616;28;20192;-57
2022/12/09 05:16:14;;;;;;;1.10;1.10;;;-2.50;97.50;-3.90;94589.00;;;;5032653;28;20554;-57
2022/12/09 05:18:41;;;;;;;2.33;2.20;;;-2.60;97.40;-3.80;94598.00;;;;5032201;28;20216;-57
2022/12/09 05:21:13;;;;;;;1.70;1.47;;;-2.60;98.20;-3.80;94593.00;;;;5032293;28;20188;-57
2022/12/09 05:23:40;;;;;;;1.77;1.67;;;-2.60;98.50;-3.60;94587.00;;;;5032283;28;20217;-57
2022/12/09 05:26:11;;;;;;;1.50;1.43;;;-2.50;98.60;-3.60;94575.00;;;;5032445;28;20203;-57
2022/12/09 05:28:39;;;;;;;1.40;1.30;;;-2.40;98.20;-3.50;94586.00;;;;5032065;28;20215;-57
2022/12/09 05:31:10;;;;;;;2.53;2.33;;;-2.30;98.10;-3.60;94579.00;;;;5032350;28;20593;-57
2022/12/09 05:33:37;;;;;;;1.40;1.30;;;-2.30;97.60;-3.60;94595.00;;;;5032212;28;20187;-59
2022/12/09 05:36:09;;;;;;;2.57;2.37;;;-2.40;96.70;-3.70;94585.00;;;;5031940;28;20194;-57
2022/12/09 05:38:36;;;;;;;1.70;1.60;;;-2.40;96.10;-3.80;94590.00;;;;5032260;28;20223;-57
2022/12/09 05:41:03;;;;;;;1.47;1.37;;;-2.50;96.20;-3.80;94577.00;;;;5032230;28;20184;-57
2022/12/09 05:43:31;;;;;;;2.20;2.07;;;-2.60;95.90;-3.80;94571.00;;;;5033067;28;20327;-57
2022/12/09 05:45:58;;;;;;;1.57;1.43;;;-2.60;96.20;-3.90;94578.00;;;;5035662;28;20195;-57
2022/12/09 05:48:27;;;;;;;1.57;1.47;;;-2.60;96.20;-4.00;94576.00;;;;5035569;28;20242;-57
2022/12/09 05:50:58;;;;;;;2.03;1.73;;;-2.70;96.10;-4.20;94572.00;;;;5035556;28;20191;-57
2022/12/09 05:53:25;;;;;;;1.40;1.40;;;-2.80;96.00;-4.00;94584.00;;;;5035398;28;20237;-57
2022/12/09 05:55:52;;;;;;;1.30;1.30;;;-2.80;96.90;-4.00;94580.00;;;;5035510;28;20200;-57
2022/12/09 05:58:19;;;;;;;1.40;1.30;;;-2.80;96.70;-4.00;94573.00;;;;5035252;28;20188;-57
2022/12/09 06:00:47;;;;;;;1.53;1.43;;;-2.70;97.00;-4.10;94567.00;;;;5035347;28;20196;-57
2022/12/09 06:03:15;;;;;;;2.83;2.53;;;-2.80;96.90;-4.00;94566.00;;;;5017053;28;20600;-57
2022/12/09 06:05:43;;;;;;;2.03;1.83;;;-2.80;97.30;-3.90;94546.00;;;;5035775;28;20202;-57
2022/12/09 06:08:10;;;;;;;1.90;1.67;;;-2.70;97.60;-3.80;94566.00;;;;5035119;28;20202;-57
2022/12/09 06:10:39;;;;;;;2.03;1.73;;;-2.60;97.40;-3.90;94565.00;;;;5035203;28;20555;-57
2022/12/09 06:13:07;;;;;;;2.20;2.10;;;-2.70;96.80;-4.00;94553.00;;;;5034998;28;20202;-57
2022/12/09 06:15:35;;;;;;;2.40;2.30;;;-2.70;97.00;-3.90;94557.00;;;;5035500;28;20209;-57
2022/12/09 06:18:02;;;;;;;1.67;1.57;;;-2.70;97.50;-3.90;94550.00;;;;5035269;28;20662;-57
2022/12/09 06:20:29;;;;;;;1.97;1.80;;;-2.70;97.40;-3.90;94556.00;;;;5034791;28;20205;-57
2022/12/09 06:22:57;;;;;;;1.70;1.60;;;-2.60;97.50;-3.90;94566.00;;;;5035501;28;20198;-57
2022/12/09 06:25:25;;;;;;;1.63;1.53;;;-2.70;97.10;-4.00;94564.00;;;;5034856;28;20222;-57
2022/12/09 06:27:53;;;;;;;1.83;1.73;;;-2.70;96.90;-3.90;94554.00;;;;5034939;28;20245;-57
2022/12/09 06:30:20;;;;;;;1.83;1.73;;;-2.70;97.10;-3.90;94563.00;;;;5034317;28;20322;-57
2022/12/09 06:32:47;;;;;;;2.17;1.97;;;-2.70;97.00;-3.90;94555.00;;;;5034784;28;20194;-57
2022/12/09 06:35:15;;;;;;;1.70;1.57;;;-2.70;97.20;-3.80;94556.00;;;;5034849;28;20233;-57
2022/12/09 06:37:42;;;;;;;2.27;2.07;;;-2.60;97.20;-3.80;94552.00;;;;5034533;28;20250;-57
2022/12/09 06:40:11;;;;;;;1.40;1.40;;;-2.60;96.80;-3.80;94559.00;;;;5034456;28;20329;-57
2022/12/09 06:42:38;;;;;;;2.50;2.30;;;-2.60;96.70;-3.90;94566.00;;;;5034782;28;20218;-57
2022/12/09 06:45:07;;;;;;;2.63;2.40;;;-2.60;96.40;-3.90;94556.00;;;;5034519;28;20218;-57
2022/12/09 06:47:34;;;;;;;1.00;1.00;;;-2.60;96.50;-3.80;94563.00;;;;5034416;28;20207;-57
2022/12/09 06:50:01;;;;;;;1.40;1.30;;;-2.60;96.50;-3.80;94562.00;;;;5034618;28;20212;-57
2022/12/09 06:52:29;;;;;;;2.30;1.97;;;-2.60;96.70;-3.80;94564.00;;;;5034377;28;20227;-56
2022/12/09 06:54:56;;;;;;;1.80;1.70;;;-2.50;97.00;-3.70;94561.00;;;;5033953;28;20202;-56
2022/12/09 06:57:24;;;;;;;1.10;1.10;;;-2.50;96.90;-3.60;94555.00;;;;5034916;28;20197;-56
2022/12/09 06:59:51;;;;;;;5.70;1.50;;;-2.50;96.60;-3.60;94552.00;;;;5034413;28;20223;-56
2022/12/09 07:02:18;;;;;;;2.03;1.93;;;-2.40;96.40;-3.60;94548.00;;;;5034471;28;20187;-57
2022/12/09 07:04:45;;;;;;;4.00;2.13;;;-2.40;96.10;-3.60;94552.00;;;;5034271;28;20211;-57
2022/12/09 07:07:13;;;;;;;1.80;1.70;;;-2.40;96.40;-3.50;94541.00;;;;5034141;28;20241;-59
2022/12/09 07:09:40;;;;;;;2.40;2.20;;;-2.30;96.40;-3.50;94547.00;;;;5034309;28;20223;-58
2022/12/09 07:12:07;;;;;;;2.17;1.93;;;-2.30;96.00;-3.60;94547.00;;;;5034124;28;20188;-57
2022/12/09 07:14:36;;;;;;;3.03;2.17;;;-2.30;95.80;-3.50;94539.00;;;;5033938;28;20204;-58
2022/12/09 07:17:03;;;;;;;2.13;1.87;;;-2.30;95.80;-3.50;94544.00;;;;5026843;28;20205;-58
2022/12/09 07:19:31;;;;;;;1.87;1.70;;;-2.30;95.90;-3.50;94527.00;;;;5016956;28;20224;-57
2022/12/09 07:21:59;;;;;;;1.43;1.33;;;-2.30;95.60;-3.50;94542.00;;;;5013033;28;20247;-58
2022/12/09 07:24:26;;;;;;;5.00;1.90;;;-2.30;96.20;-3.40;94541.00;;;;5010520;28;20227;-58
2022/12/09 07:26:53;;;;;;;1.60;1.50;;;-2.30;95.70;-3.40;94530.00;;;;5011021;28;20239;-58
2022/12/09 07:29:20;;;;;;;2.73;2.03;;;-2.30;95.40;-3.30;94534.00;;;;5011198;28;20234;-58
2022/12/09 07:31:49;;;;;;;3.57;2.00;;;-2.20;95.00;-3.40;94545.00;;;;5010816;28;20559;-58
2022/12/09 07:34:16;;;;;;;1.70;1.60;;;-2.20;94.60;-3.30;94513.00;;;;5018825;28;20223;-58
2022/12/09 07:36:43;;;;;;;3.20;2.27;;;-2.10;94.50;-3.30;94535.00;;;;5026298;28;20206;-58
2022/12/09 07:39:15;;;;;;;1.73;1.63;;;-2.10;94.40;-3.30;94543.00;;;;5024061;28;20222;-57
2022/12/09 07:41:42;;;;;;;1.60;1.50;;;-2.00;93.90;-3.20;94536.00;;;;5030782;28;20714;-58
2022/12/09 07:44:09;;;;;;;1.93;1.73;;;-2.00;93.80;-3.10;94528.00;;;;5029273;28;20223;-57
2022/12/09 07:46:38;;;;;;;1.67;1.57;;;-2.00;93.80;-3.10;94539.00;;;;5029729;28;20196;-56
2022/12/09 07:49:06;;;;;;;1.63;1.53;;;-1.90;93.80;-3.10;94529.00;;;;5029789;28;20219;-57
2022/12/09 07:51:34;;;;;;;2.20;2.07;;;-2.00;93.10;-3.10;94522.00;;;;5029371;28;20208;-58
2022/12/09 07:54:01;;;;;;;2.50;1.73;;;-1.90;93.80;-2.90;94538.00;;;;5030136;28;20194;-57
2022/12/09 07:56:28;;;;;;;1.83;1.73;;;-1.80;93.70;-2.90;94529.00;;;;5029581;28;20190;-58
2022/12/09 07:58:55;;;;;;;4.00;3.13;;;-1.80;93.50;-2.80;94529.00;;;;5030597;28;20218;-58
2022/12/09 08:01:25;;;;;;;2.13;1.93;;;-1.70;93.40;-2.70;94534.00;;;;5029695;28;20196;-58
2022/12/09 08:03:54;;;;;;;2.67;2.47;;;-1.60;93.00;-2.60;94536.00;;;;5030303;28;20279;-57
2022/12/09 08:06:24;;;;;;;3.00;2.80;;;-1.50;92.50;-2.50;94527.00;;;;5028914;28;20194;-57
2022/12/09 08:08:51;;;;;;;1.83;1.63;;;-1.40;92.40;-2.40;94535.00;;;;5029534;28;20227;-57
2022/12/09 08:11:22;;;;;;;4.57;3.50;;;-1.30;91.90;-2.40;94525.00;;;;5024963;28;20211;-58
2022/12/09 08:13:49;;;;;;;1.40;1.40;;;-1.30;91.70;-2.30;94532.00;;;;5029958;28;20204;-57
2022/12/09 08:16:21;;;;;;;3.53;3.23;;;-1.20;91.50;-2.30;94534.00;;;;5029761;28;20283;-56
2022/12/09 08:18:49;;;;;;;1.57;1.47;;;-1.20;91.50;-2.10;94512.00;;;;5027139;28;20221;-57
2022/12/09 08:21:20;;;;;;;2.03;1.77;;;-1.10;91.50;-2.10;94523.00;;;;5010203;28;20655;-57
2022/12/09 08:23:49;;;;;;;2.60;2.40;;;-1.00;90.90;-2.10;94527.00;;;;5009608;28;20182;-57
2022/12/09 08:26:20;;;;;;;2.57;2.23;;;-1.00;90.20;-2.10;94531.00;;;;5010134;28;20236;-57
2022/12/09 08:28:49;;;;;;;2.07;1.97;;;-1.00;90.70;-2.10;94529.00;;;;5010399;28;20295;-57
2022/12/09 08:31:20;;;;;;;1.73;1.63;;;-1.00;90.60;-2.20;94526.00;;;;5020235;28;20201;-57
2022/12/09 08:33:48;;;;;;;2.20;1.93;;;-1.00;89.50;-2.10;94517.00;;;;5030391;28;20192;-57
2022/12/09 08:36:17;;;;;;;2.77;2.57;;;-1.00;90.50;-1.90;94519.00;;;;5030456;28;20201;-58
2022/12/09 08:38:46;;;;;;;2.77;1.73;;;-0.90;90.90;-1.90;94525.00;;;;5029525;28;20233;-57
2022/12/09 08:41:16;;;;;;;4.60;2.53;;;-0.80;90.70;-1.80;94513.00;;;;5020628;28;20236;-57
2022/12/09 08:43:45;;;;;;;2.37;2.17;;;-0.80;90.60;-1.80;94507.00;;;;5010626;28;20213;-58
2022/12/09 08:46:13;;;;;;;1.43;1.43;;;-0.70;90.60;-1.80;94496.00;;;;5010629;28;20232;-57
2022/12/09 08:48:42;;;;;;;3.57;3.30;;;-0.70;90.40;-1.80;94502.00;;;;5025157;28;20219;-57
2022/12/09 08:51:11;;;;;;;2.77;2.57;;;-0.70;90.30;-2.00;94500.00;;;;5016058;28;20213;-57
2022/12/09 08:53:38;;;;;;;2.30;2.10;;;-0.80;89.70;-2.00;94508.00;;;;5010946;28;20702;-57
2022/12/09 08:56:11;;;;;;;3.07;2.50;;;-0.80;90.30;-2.00;94506.00;;;;5010851;28;20208;-58
2022/12/09 08:58:40;;;;;;;2.77;2.27;;;-0.80;90.70;-2.00;94508.00;;;;5016244;28;20326;-58
2022/12/09 09:01:14;;;;;;;3.20;2.47;;;-0.90;91.10;-2.00;94493.00;;;;5030327;28;20200;-57
2022/12/09 09:03:41;;;;;;;2.60;2.40;;;-0.90;91.40;-1.90;94494.00;;;;5030285;28;20288;-60
2022/12/09 09:06:08;;;;;;;3.03;2.70;;;-0.80;91.80;-1.90;94495.00;;;;5024458;28;20598;-58
2022/12/09 09:08:36;;;;;;;1.33;1.30;;;-0.80;91.40;-1.90;94497.00;;;;5010128;28;20603;-57
2022/12/09 09:11:09;;;;;;;1.23;1.23;;;-0.80;91.60;-1.90;94484.00;;;;5010211;28;20215;-58
2022/12/09 09:13:36;;;;;;;2.03;1.90;;;-0.80;92.00;-1.90;94495.00;;;;5010470;28;20273;-58
2022/12/09 09:16:09;;;;;;;2.63;2.47;;;-0.80;92.90;-1.90;94503.00;;;;5010582;28;20201;-57
2022/12/09 09:18:36;;;;;;;2.40;2.27;;;-0.80;92.30;-1.90;94503.00;;;;5012437;28;20229;-57
2022/12/09 09:21:05;;;;;;;2.20;2.10;;;-0.80;92.00;-1.80;94506.00;;;;5013623;28;20197;-57
2022/12/09 09:23:32;;;;;;;3.20;2.20;;;-0.70;92.50;-1.70;94506.00;;;;5014097;28;20697;-57
2022/12/09 09:25:59;;;;;;;3.00;2.70;;;-0.60;92.30;-1.60;94505.00;;;;5013446;28;20240;-57
2022/12/09 09:28:26;;;;;;;4.00;2.07;;;-0.60;92.30;-1.50;94494.00;;;;5013646;28;20232;-57
2022/12/09 09:30:59;;;;;;;4.60;2.33;;;-0.50;92.60;-1.30;94494.00;;;;5031170;28;20205;-57
2022/12/09 09:33:28;;;;;;;2.30;2.17;;;-0.40;92.90;-1.30;94489.00;;;;5033002;28;20554;-57
2022/12/09 09:35:56;;;;;;;1.93;1.83;;;-0.30;92.30;-1.20;94490.00;;;;5032661;28;20226;-57
2022/12/09 09:38:24;;;;;;;2.00;1.80;;;-0.20;92.30;-1.20;94491.00;;;;5014962;28;20221;-58
2022/12/09 09:40:51;;;;;;;3.07;2.80;;;-0.20;92.10;-1.20;94484.00;;;;5019163;28;20193;-57
2022/12/09 09:43:25;;;;;;;8.73;3.53;;;-0.10;92.50;-1.20;94484.00;;;;5013739;28;20194;-57
2022/12/09 09:45:55;;;;;;;3.07;2.77;;;-0.10;92.50;-1.30;94479.00;;;;5033244;28;20240;-57
2022/12/09 09:48:30;;;;;;;4.50;2.30;;;-0.20;91.80;-1.20;94472.00;;;;5028534;28;20747;-58
2022/12/09 09:51:05;;;;;;;1.20;1.20;;;-0.10;92.70;-1.10;94469.00;;;;5013677;28;20193;-58
2022/12/09 09:53:34;;;;;;;2.93;1.90;;;-0.10;92.60;-1.10;94460.00;;;;5015591;28;20193;-58
2022/12/09 09:56:07;;;;;;;2.20;2.10;;;0.00;92.20;-1.00;94458.00;;;;5019337;28;20205;-58
2022/12/09 09:58:44;;;;;;;2.70;2.13;;;0.00;93.90;-0.90;94466.00;;;;5013437;28;20213;-57
2022/12/09 10:01:16;;;;;;;2.40;2.20;;;0.10;93.40;-0.90;94465.00;;;;5013440;28;20192;-57
2022/12/09 10:03:54;;;;;;;3.03;2.73;;;0.20;92.30;-0.90;94481.00;;;;5013672;28;20556;-57
2022/12/09 10:06:33;;;;;;;9.23;1.90;;;0.20;91.80;-0.80;94461.00;;;;5029963;28;20213;-58
2022/12/09 10:09:08;;;;;;;2.67;2.33;;;0.40;91.60;-0.80;94463.00;;;;5014107;28;20217;-57
2022/12/09 10:11:44;;;;;;;5.03;2.67;;;0.30;91.30;-0.70;94462.00;;;;5017228;28;20200;-56
2022/12/09 10:14:19;;;;;;;6.67;3.10;;;0.30;91.30;-0.80;94468.00;;;;5033050;28;20177;-57
2022/12/09 10:16:58;;;;;;;5.60;2.83;;;0.30;91.20;-0.60;94461.00;;;;5030997;28;20196;-54
2022/12/09 10:19:31;;;;;;;1.83;1.73;;;0.40;90.90;-0.70;94460.00;;;;5012990;28;20229;-56
2022/12/09 10:22:10;;;;;;;3.70;3.37;;;0.40;90.70;-0.80;94459.00;;;;5012431;28;20197;-58
2022/12/09 10:24:45;;;;;;;4.67;3.53;;;0.30;91.30;-0.80;94460.00;;;;5010310;28;20292;-57
2022/12/09 10:27:21;;;;;;;2.60;2.40;;;0.20;91.40;-0.80;94448.00;;;;5032471;28;20186;-57
2022/12/09 10:29:55;;;;;;;2.30;2.20;;;0.30;92.10;-0.80;94438.00;;;;5024342;28;20699;-57
2022/12/09 10:32:27;;;;;;;3.47;3.17;;;0.30;91.80;-0.80;94444.00;;;;5013144;28;20204;-56
2022/12/09 10:34:56;;;;;;;1.93;1.73;;;0.30;91.80;-0.60;94437.00;;;;5012254;28;20272;-56
2022/12/09 10:37:30;;;;;;;2.20;2.10;;;0.40;92.20;-0.60;94446.00;;;;5012768;28;20202;-56
2022/12/09 10:40:15;;;;;;;4.40;1.70;;;0.40;91.90;-0.50;94437.00;;;;5017151;28;20312;-56
2022/12/09 10:45:32;;;;;;;2.40;2.20;;;0.60;91.60;-0.30;94438.00;;;;5032767;28;20200;-56
2022/12/09 10:48:02;;;;;;;1.57;1.53;;;0.70;91.60;-0.40;94406.00;;;;5012991;28;20186;-57
2022/12/09 10:50:35;;;;;;;1.20;1.20;;;0.60;91.00;-0.50;94421.00;;;;5028103;28;20197;-57
2022/12/09 10:53:11;;;;;;;2.83;2.63;;;0.60;90.90;-0.50;94434.00;;;;5032463;28;20194;-57
2022/12/09 10:55:42;;;;;;;2.53;2.43;;;0.60;91.10;-0.40;94444.00;;;;5031017;28;20205;-57
2022/12/09 10:58:18;;;;;;;3.30;2.07;;;0.60;91.30;-0.40;94435.00;;;;5031121;28;20193;-57
2022/12/09 11:01:01;;;;;;;3.33;3.00;;;0.60;91.30;-0.50;94421.00;;;;5031553;28;20291;-56
2022/12/09 11:03:33;;;;;;;2.80;1.70;;;0.60;91.00;-0.30;94420.00;;;;5032148;28;20292;-56
2022/12/09 11:06:20;;;;;;;1.43;1.40;;;0.70;91.80;-0.10;94425.00;;;;5014343;28;20217;-55
2022/12/09 11:08:53;;;;;;;2.40;2.20;;;0.80;91.60;0.00;94418.00;;;;5032104;28;20240;-57
2022/12/09 11:11:37;;;;;;;1.37;1.37;;;1.00;91.90;0.10;94413.00;;;;5012389;28;20265;-57